sensor_id;sensor_type;location;lat;lon;timestamp;P1;durP1;ratioP1;P2;durP2;ratioP2
78368;SDS011;71113;43.092;-89.268;2024-01-07T00:01:24;3.08;;;1.83;;
78368;SDS011;71113;43.092;-89.268;2024-01-07T00:03:51;2.83;;;1.80;;
78368;SDS011;71113;43.092;-89.268;2024-01-07T00:06:18;2.13;;;1.58;;
78368;SDS011;71113;43.092;-89.268;2024-01-07T00:08:44;3.00;;;2.05;;
78368;SDS011;71113;43.092;-89.268;2024-01-07T00:11:11;2.97;;;1.90;;
78368;SDS011;71113;43.092;-89.268;2024-01-07T00:13:38;2.85;;;1.90;;
78368;SDS011;71113;43.092;-89.268;2024-01-07T00:16:04;3.17;;;1.83;;
78368;SDS011;71113;43.092;-89.268;2024-01-07T00:18:31;3.78;;;2.20;;
78368;SDS011;71113;43.092;-89.268;2024-01-07T00:20:56;9.10;;;2.42;;
78368;SDS011;71113;43.092;-89.268;2024-01-07T00:23:22;3.47;;;2.25;;
78368;SDS011;71113;43.092;-89.268;2024-01-07T00:25:49;4.10;;;2.50;;
78368;SDS011;71113;43.092;-89.268;2024-01-07T00:28:15;3.70;;;2.45;;
78368;SDS011;71113;43.092;-89.268;2024-01-07T00:30:41;7.20;;;2.53;;
78368;SDS011;71113;43.092;-89.268;2024-01-07T00:33:07;4.25;;;2.40;;
78368;SDS011;71113;43.092;-89.268;2024-01-07T00:35:33;3.67;;;2.30;;
78368;SDS011;71113;43.092;-89.268;2024-01-07T00:37:58;4.53;;;2.30;;
78368;SDS011;71113;43.092;-89.268;2024-01-07T00:40:24;5.93;;;2.38;;
78368;SDS011;71113;43.092;-89.268;2024-01-07T00:42:51;3.55;;;2.17;;
78368;SDS011;71113;43.092;-89.268;2024-01-07T00:45:18;3.30;;;2.17;;
78368;SDS011;71113;43.092;-89.268;2024-01-07T00:47:44;4.75;;;3.03;;
78368;SDS011;71113;43.092;-89.268;2024-01-07T00:50:10;4.63;;;2.50;;
78368;SDS011;71113;43.092;-89.268;2024-01-07T00:52:36;4.60;;;2.70;;
78368;SDS011;71113;43.092;-89.268;2024-01-07T00:55:03;7.63;;;4.75;;
78368;SDS011;71113;43.092;-89.268;2024-01-07T00:57:31;8.00;;;4.10;;
78368;SDS011;71113;43.092;-89.268;2024-01-07T00:59:58;10.82;;;5.68;;
78368;SDS011;71113;43.092;-89.268;2024-01-07T01:02:25;7.30;;;4.55;;
78368;SDS011;71113;43.092;-89.268;2024-01-07T01:04:51;11.35;;;5.70;;
78368;SDS011;71113;43.092;-89.268;2024-01-07T01:07:17;10.70;;;5.75;;
78368;SDS011;71113;43.092;-89.268;2024-01-07T01:09:43;10.48;;;5.03;;
78368;SDS011;71113;43.092;-89.268;2024-01-07T01:12:09;11.23;;;6.18;;
78368;SDS011;71113;43.092;-89.268;2024-01-07T01:14:35;9.65;;;5.28;;
78368;SDS011;71113;43.092;-89.268;2024-01-07T01:17:02;11.07;;;6.30;;
78368;SDS011;71113;43.092;-89.268;2024-01-07T01:19:28;11.60;;;6.28;;
78368;SDS011;71113;43.092;-89.268;2024-01-07T01:21:54;15.52;;;8.38;;
78368;SDS011;71113;43.092;-89.268;2024-01-07T01:24:20;14.73;;;7.32;;
78368;SDS011;71113;43.092;-89.268;2024-01-07T01:26:46;12.32;;;6.65;;
78368;SDS011;71113;43.092;-89.268;2024-01-07T01:29:13;15.98;;;7.75;;
78368;SDS011;71113;43.092;-89.268;2024-01-07T01:31:39;12.75;;;7.00;;
78368;SDS011;71113;43.092;-89.268;2024-01-07T01:34:05;12.13;;;7.18;;
78368;SDS011;71113;43.092;-89.268;2024-01-07T01:36:31;12.63;;;6.97;;
78368;SDS011;71113;43.092;-89.268;2024-01-07T01:38:57;12.60;;;6.85;;
78368;SDS011;71113;43.092;-89.268;2024-01-07T01:41:23;11.00;;;6.10;;
78368;SDS011;71113;43.092;-89.268;2024-01-07T01:43:49;13.10;;;6.93;;
78368;SDS011;71113;43.092;-89.268;2024-01-07T01:46:15;13.30;;;7.63;;
78368;SDS011;71113;43.092;-89.268;2024-01-07T01:48:42;14.98;;;7.47;;
78368;SDS011;71113;43.092;-89.268;2024-01-07T01:51:08;13.90;;;8.10;;
78368;SDS011;71113;43.092;-89.268;2024-01-07T01:53:35;14.18;;;7.97;;
78368;SDS011;71113;43.092;-89.268;2024-01-07T01:56:02;15.20;;;7.82;;
78368;SDS011;71113;43.092;-89.268;2024-01-07T01:58:29;16.08;;;8.27;;
78368;SDS011;71113;43.092;-89.268;2024-01-07T02:00:55;16.83;;;8.93;;
78368;SDS011;71113;43.092;-89.268;2024-01-07T02:03:22;16.77;;;9.32;;
78368;SDS011;71113;43.092;-89.268;2024-01-07T02:05:48;16.50;;;9.10;;
78368;SDS011;71113;43.092;-89.268;2024-01-07T02:08:15;17.73;;;9.15;;
78368;SDS011;71113;43.092;-89.268;2024-01-07T02:10:42;17.60;;;8.50;;
78368;SDS011;71113;43.092;-89.268;2024-01-07T02:13:08;15.18;;;8.85;;
78368;SDS011;71113;43.092;-89.268;2024-01-07T02:15:38;19.05;;;10.18;;
78368;SDS011;71113;43.092;-89.268;2024-01-07T02:18:04;21.15;;;10.68;;
78368;SDS011;71113;43.092;-89.268;2024-01-07T02:20:30;17.05;;;9.57;;
78368;SDS011;71113;43.092;-89.268;2024-01-07T02:22:56;16.15;;;9.40;;
78368;SDS011;71113;43.092;-89.268;2024-01-07T02:25:23;15.02;;;8.75;;
78368;SDS011;71113;43.092;-89.268;2024-01-07T02:27:49;14.40;;;8.20;;
78368;SDS011;71113;43.092;-89.268;2024-01-07T02:30:15;15.63;;;8.13;;
78368;SDS011;71113;43.092;-89.268;2024-01-07T02:32:42;12.60;;;7.82;;
78368;SDS011;71113;43.092;-89.268;2024-01-07T02:35:08;13.70;;;7.65;;
78368;SDS011;71113;43.092;-89.268;2024-01-07T02:37:34;12.90;;;7.45;;
78368;SDS011;71113;43.092;-89.268;2024-01-07T02:40:01;11.75;;;6.88;;
78368;SDS011;71113;43.092;-89.268;2024-01-07T02:42:27;12.77;;;7.25;;
78368;SDS011;71113;43.092;-89.268;2024-01-07T02:44:53;13.63;;;7.97;;
78368;SDS011;71113;43.092;-89.268;2024-01-07T02:47:19;13.00;;;8.18;;
78368;SDS011;71113;43.092;-89.268;2024-01-07T02:49:45;14.00;;;7.40;;
78368;SDS011;71113;43.092;-89.268;2024-01-07T02:52:11;14.07;;;8.02;;
78368;SDS011;71113;43.092;-89.268;2024-01-07T02:54:39;14.57;;;9.15;;
78368;SDS011;71113;43.092;-89.268;2024-01-07T02:57:05;13.65;;;8.68;;
78368;SDS011;71113;43.092;-89.268;2024-01-07T02:59:31;14.15;;;7.88;;
78368;SDS011;71113;43.092;-89.268;2024-01-07T03:01:57;14.57;;;8.02;;
78368;SDS011;71113;43.092;-89.268;2024-01-07T03:04:23;14.50;;;8.95;;
78368;SDS011;71113;43.092;-89.268;2024-01-07T03:06:49;13.30;;;8.70;;
78368;SDS011;71113;43.092;-89.268;2024-01-07T03:09:15;16.63;;;9.15;;
78368;SDS011;71113;43.092;-89.268;2024-01-07T03:11:41;13.48;;;8.90;;
78368;SDS011;71113;43.092;-89.268;2024-01-07T03:14:07;14.48;;;8.63;;
78368;SDS011;71113;43.092;-89.268;2024-01-07T03:16:33;14.75;;;8.52;;
78368;SDS011;71113;43.092;-89.268;2024-01-07T03:18:59;14.55;;;9.32;;
78368;SDS011;71113;43.092;-89.268;2024-01-07T03:21:27;52.83;;;33.47;;
78368;SDS011;71113;43.092;-89.268;2024-01-07T03:23:53;148.85;;;76.63;;
78368;SDS011;71113;43.092;-89.268;2024-01-07T03:26:19;102.75;;;55.17;;
78368;SDS011;71113;43.092;-89.268;2024-01-07T03:28:46;132.18;;;66.95;;
78368;SDS011;71113;43.092;-89.268;2024-01-07T03:31:14;110.28;;;56.47;;
78368;SDS011;71113;43.092;-89.268;2024-01-07T03:33:41;98.90;;;49.08;;
78368;SDS011;71113;43.092;-89.268;2024-01-07T03:36:08;94.43;;;46.67;;
78368;SDS011;71113;43.092;-89.268;2024-01-07T03:38:54;85.10;;;43.90;;
78368;SDS011;71113;43.092;-89.268;2024-01-07T03:41:21;83.68;;;43.38;;
78368;SDS011;71113;43.092;-89.268;2024-01-07T03:43:47;80.50;;;42.22;;
78368;SDS011;71113;43.092;-89.268;2024-01-07T03:46:14;73.07;;;37.55;;
78368;SDS011;71113;43.092;-89.268;2024-01-07T03:48:42;72.45;;;37.38;;
78368;SDS011;71113;43.092;-89.268;2024-01-07T03:51:08;71.43;;;37.42;;
78368;SDS011;71113;43.092;-89.268;2024-01-07T03:53:35;73.80;;;37.30;;
78368;SDS011;71113;43.092;-89.268;2024-01-07T03:56:01;65.93;;;34.50;;
78368;SDS011;71113;43.092;-89.268;2024-01-07T03:58:27;62.85;;;32.30;;
78368;SDS011;71113;43.092;-89.268;2024-01-07T04:00:53;54.35;;;29.17;;
78368;SDS011;71113;43.092;-89.268;2024-01-07T04:03:19;51.97;;;26.73;;
78368;SDS011;71113;43.092;-89.268;2024-01-07T04:05:45;53.00;;;26.70;;
78368;SDS011;71113;43.092;-89.268;2024-01-07T04:08:11;54.75;;;25.85;;
78368;SDS011;71113;43.092;-89.268;2024-01-07T04:10:37;44.25;;;23.83;;
78368;SDS011;71113;43.092;-89.268;2024-01-07T04:13:04;44.50;;;23.23;;
78368;SDS011;71113;43.092;-89.268;2024-01-07T04:15:30;43.97;;;22.90;;
78368;SDS011;71113;43.092;-89.268;2024-01-07T04:17:56;42.25;;;23.30;;
78368;SDS011;71113;43.092;-89.268;2024-01-07T04:20:22;37.42;;;19.95;;
78368;SDS011;71113;43.092;-89.268;2024-01-07T04:22:49;37.67;;;20.88;;
78368;SDS011;71113;43.092;-89.268;2024-01-07T04:25:14;38.88;;;20.75;;
78368;SDS011;71113;43.092;-89.268;2024-01-07T04:27:41;36.28;;;20.15;;
78368;SDS011;71113;43.092;-89.268;2024-01-07T04:30:07;40.20;;;20.20;;
78368;SDS011;71113;43.092;-89.268;2024-01-07T04:32:33;38.33;;;19.40;;
78368;SDS011;71113;43.092;-89.268;2024-01-07T04:34:59;37.38;;;19.65;;
78368;SDS011;71113;43.092;-89.268;2024-01-07T04:37:25;37.65;;;18.98;;
78368;SDS011;71113;43.092;-89.268;2024-01-07T04:39:51;34.70;;;18.90;;
78368;SDS011;71113;43.092;-89.268;2024-01-07T04:42:17;32.47;;;17.27;;
78368;SDS011;71113;43.092;-89.268;2024-01-07T04:44:44;33.00;;;17.52;;
78368;SDS011;71113;43.092;-89.268;2024-01-07T04:47:29;33.08;;;17.60;;
78368;SDS011;71113;43.092;-89.268;2024-01-07T04:49:56;32.97;;;17.52;;
78368;SDS011;71113;43.092;-89.268;2024-01-07T04:52:23;32.83;;;17.33;;
78368;SDS011;71113;43.092;-89.268;2024-01-07T04:54:50;31.38;;;16.25;;
78368;SDS011;71113;43.092;-89.268;2024-01-07T04:57:17;28.77;;;16.35;;
78368;SDS011;71113;43.092;-89.268;2024-01-07T04:59:43;27.55;;;14.98;;
78368;SDS011;71113;43.092;-89.268;2024-01-07T05:02:10;25.73;;;14.02;;
78368;SDS011;71113;43.092;-89.268;2024-01-07T05:04:36;25.98;;;13.68;;
78368;SDS011;71113;43.092;-89.268;2024-01-07T05:07:03;24.42;;;13.90;;
78368;SDS011;71113;43.092;-89.268;2024-01-07T05:09:29;25.40;;;13.75;;
78368;SDS011;71113;43.092;-89.268;2024-01-07T05:11:56;24.65;;;13.73;;
78368;SDS011;71113;43.092;-89.268;2024-01-07T05:14:22;24.77;;;12.93;;
78368;SDS011;71113;43.092;-89.268;2024-01-07T05:16:48;24.05;;;13.32;;
78368;SDS011;71113;43.092;-89.268;2024-01-07T05:19:14;24.55;;;12.75;;
78368;SDS011;71113;43.092;-89.268;2024-01-07T05:21:40;24.50;;;13.20;;
78368;SDS011;71113;43.092;-89.268;2024-01-07T05:24:06;22.45;;;12.45;;
78368;SDS011;71113;43.092;-89.268;2024-01-07T05:26:37;23.10;;;12.43;;
78368;SDS011;71113;43.092;-89.268;2024-01-07T05:29:05;23.70;;;12.50;;
78368;SDS011;71113;43.092;-89.268;2024-01-07T05:31:31;20.95;;;11.20;;
78368;SDS011;71113;43.092;-89.268;2024-01-07T05:33:57;19.67;;;10.80;;
78368;SDS011;71113;43.092;-89.268;2024-01-07T05:36:24;23.15;;;11.77;;
78368;SDS011;71113;43.092;-89.268;2024-01-07T05:38:50;23.00;;;11.57;;
78368;SDS011;71113;43.092;-89.268;2024-01-07T05:41:16;22.58;;;11.90;;
78368;SDS011;71113;43.092;-89.268;2024-01-07T05:43:42;19.23;;;10.93;;
78368;SDS011;71113;43.092;-89.268;2024-01-07T05:46:08;20.83;;;11.40;;
78368;SDS011;71113;43.092;-89.268;2024-01-07T05:48:47;21.05;;;11.13;;
78368;SDS011;71113;43.092;-89.268;2024-01-07T05:51:14;18.70;;;9.98;;
78368;SDS011;71113;43.092;-89.268;2024-01-07T05:53:40;19.48;;;10.65;;
78368;SDS011;71113;43.092;-89.268;2024-01-07T05:56:07;19.15;;;10.40;;
78368;SDS011;71113;43.092;-89.268;2024-01-07T05:58:33;15.82;;;8.82;;
78368;SDS011;71113;43.092;-89.268;2024-01-07T06:00:59;15.35;;;8.63;;
78368;SDS011;71113;43.092;-89.268;2024-01-07T06:03:25;15.48;;;8.80;;
78368;SDS011;71113;43.092;-89.268;2024-01-07T06:05:52;15.57;;;8.40;;
78368;SDS011;71113;43.092;-89.268;2024-01-07T06:08:18;14.48;;;8.50;;
78368;SDS011;71113;43.092;-89.268;2024-01-07T06:10:44;14.25;;;8.27;;
78368;SDS011;71113;43.092;-89.268;2024-01-07T06:13:10;17.33;;;8.27;;
78368;SDS011;71113;43.092;-89.268;2024-01-07T06:15:36;15.05;;;8.35;;
78368;SDS011;71113;43.092;-89.268;2024-01-07T06:18:01;15.70;;;8.50;;
78368;SDS011;71113;43.092;-89.268;2024-01-07T06:20:29;14.60;;;8.93;;
78368;SDS011;71113;43.092;-89.268;2024-01-07T06:22:54;13.93;;;8.20;;
78368;SDS011;71113;43.092;-89.268;2024-01-07T06:25:20;15.50;;;8.07;;
78368;SDS011;71113;43.092;-89.268;2024-01-07T06:27:46;14.02;;;8.25;;
78368;SDS011;71113;43.092;-89.268;2024-01-07T06:30:12;14.52;;;8.35;;
78368;SDS011;71113;43.092;-89.268;2024-01-07T06:32:39;12.32;;;6.72;;
78368;SDS011;71113;43.092;-89.268;2024-01-07T06:35:06;12.43;;;7.65;;
78368;SDS011;71113;43.092;-89.268;2024-01-07T06:37:32;12.00;;;7.28;;
78368;SDS011;71113;43.092;-89.268;2024-01-07T06:39:59;13.30;;;7.75;;
78368;SDS011;71113;43.092;-89.268;2024-01-07T06:42:25;11.82;;;6.50;;
78368;SDS011;71113;43.092;-89.268;2024-01-07T06:44:51;12.68;;;7.07;;
78368;SDS011;71113;43.092;-89.268;2024-01-07T06:47:17;13.45;;;7.20;;
78368;SDS011;71113;43.092;-89.268;2024-01-07T06:49:44;12.02;;;7.00;;
78368;SDS011;71113;43.092;-89.268;2024-01-07T06:52:10;12.18;;;7.15;;
78368;SDS011;71113;43.092;-89.268;2024-01-07T06:54:36;14.02;;;7.50;;
78368;SDS011;71113;43.092;-89.268;2024-01-07T06:57:04;12.80;;;7.40;;
78368;SDS011;71113;43.092;-89.268;2024-01-07T06:59:30;9.05;;;5.78;;
78368;SDS011;71113;43.092;-89.268;2024-01-07T07:01:56;10.88;;;6.05;;
78368;SDS011;71113;43.092;-89.268;2024-01-07T07:04:22;10.68;;;6.15;;
78368;SDS011;71113;43.092;-89.268;2024-01-07T07:06:48;9.68;;;5.30;;
78368;SDS011;71113;43.092;-89.268;2024-01-07T07:09:13;10.35;;;6.15;;
78368;SDS011;71113;43.092;-89.268;2024-01-07T07:11:40;9.48;;;5.57;;
78368;SDS011;71113;43.092;-89.268;2024-01-07T07:14:06;10.98;;;6.35;;
78368;SDS011;71113;43.092;-89.268;2024-01-07T07:16:32;10.45;;;5.75;;
78368;SDS011;71113;43.092;-89.268;2024-01-07T07:18:59;10.23;;;5.85;;
78368;SDS011;71113;43.092;-89.268;2024-01-07T07:21:25;9.98;;;6.05;;
78368;SDS011;71113;43.092;-89.268;2024-01-07T07:23:52;9.35;;;5.63;;
78368;SDS011;71113;43.092;-89.268;2024-01-07T07:26:18;9.60;;;5.70;;
78368;SDS011;71113;43.092;-89.268;2024-01-07T07:28:44;8.07;;;4.63;;
78368;SDS011;71113;43.092;-89.268;2024-01-07T07:31:11;8.43;;;5.55;;
78368;SDS011;71113;43.092;-89.268;2024-01-07T07:33:40;8.82;;;5.20;;
78368;SDS011;71113;43.092;-89.268;2024-01-07T07:36:06;8.75;;;5.40;;
78368;SDS011;71113;43.092;-89.268;2024-01-07T07:38:33;8.10;;;4.85;;
78368;SDS011;71113;43.092;-89.268;2024-01-07T07:41:02;8.75;;;5.00;;
78368;SDS011;71113;43.092;-89.268;2024-01-07T07:43:28;9.35;;;5.45;;
78368;SDS011;71113;43.092;-89.268;2024-01-07T07:45:54;8.93;;;5.28;;
78368;SDS011;71113;43.092;-89.268;2024-01-07T07:48:20;8.23;;;4.90;;
78368;SDS011;71113;43.092;-89.268;2024-01-07T07:50:46;9.10;;;5.25;;
78368;SDS011;71113;43.092;-89.268;2024-01-07T07:53:14;8.75;;;5.45;;
78368;SDS011;71113;43.092;-89.268;2024-01-07T07:55:40;7.68;;;4.53;;
78368;SDS011;71113;43.092;-89.268;2024-01-07T07:58:06;8.30;;;5.18;;
78368;SDS011;71113;43.092;-89.268;2024-01-07T08:00:33;9.02;;;4.88;;
78368;SDS011;71113;43.092;-89.268;2024-01-07T08:02:59;8.07;;;4.78;;
78368;SDS011;71113;43.092;-89.268;2024-01-07T08:05:45;7.22;;;4.32;;
78368;SDS011;71113;43.092;-89.268;2024-01-07T08:08:11;7.50;;;4.72;;
78368;SDS011;71113;43.092;-89.268;2024-01-07T08:10:37;6.13;;;4.07;;
78368;SDS011;71113;43.092;-89.268;2024-01-07T08:13:02;6.72;;;4.03;;
78368;SDS011;71113;43.092;-89.268;2024-01-07T08:15:28;6.63;;;4.30;;
78368;SDS011;71113;43.092;-89.268;2024-01-07T08:17:54;6.10;;;3.88;;
78368;SDS011;71113;43.092;-89.268;2024-01-07T08:20:20;6.40;;;4.35;;
78368;SDS011;71113;43.092;-89.268;2024-01-07T08:22:46;7.03;;;4.10;;
78368;SDS011;71113;43.092;-89.268;2024-01-07T08:25:12;7.22;;;4.28;;
78368;SDS011;71113;43.092;-89.268;2024-01-07T08:27:40;6.97;;;4.25;;
78368;SDS011;71113;43.092;-89.268;2024-01-07T08:30:06;7.32;;;4.30;;
78368;SDS011;71113;43.092;-89.268;2024-01-07T08:32:32;6.28;;;4.05;;
78368;SDS011;71113;43.092;-89.268;2024-01-07T08:35:00;7.10;;;4.28;;
78368;SDS011;71113;43.092;-89.268;2024-01-07T08:37:26;6.65;;;4.00;;
78368;SDS011;71113;43.092;-89.268;2024-01-07T08:39:52;7.05;;;4.10;;
78368;SDS011;71113;43.092;-89.268;2024-01-07T08:42:18;5.90;;;3.78;;
78368;SDS011;71113;43.092;-89.268;2024-01-07T08:44:44;7.20;;;4.07;;
78368;SDS011;71113;43.092;-89.268;2024-01-07T08:47:10;7.75;;;4.18;;
78368;SDS011;71113;43.092;-89.268;2024-01-07T08:49:36;6.30;;;4.13;;
78368;SDS011;71113;43.092;-89.268;2024-01-07T08:52:03;6.68;;;3.70;;
78368;SDS011;71113;43.092;-89.268;2024-01-07T08:54:30;6.57;;;4.03;;
78368;SDS011;71113;43.092;-89.268;2024-01-07T08:56:56;6.32;;;3.88;;
78368;SDS011;71113;43.092;-89.268;2024-01-07T08:59:21;6.72;;;4.20;;
78368;SDS011;71113;43.092;-89.268;2024-01-07T09:05:06;6.28;;;3.95;;
78368;SDS011;71113;43.092;-89.268;2024-01-07T09:07:32;6.43;;;4.03;;
78368;SDS011;71113;43.092;-89.268;2024-01-07T09:09:57;6.10;;;3.38;;
78368;SDS011;71113;43.092;-89.268;2024-01-07T09:12:26;5.82;;;3.97;;
78368;SDS011;71113;43.092;-89.268;2024-01-07T09:14:52;5.82;;;3.70;;
78368;SDS011;71113;43.092;-89.268;2024-01-07T09:17:18;6.38;;;4.00;;
78368;SDS011;71113;43.092;-89.268;2024-01-07T09:19:45;6.93;;;4.22;;
78368;SDS011;71113;43.092;-89.268;2024-01-07T09:22:11;6.57;;;3.80;;
78368;SDS011;71113;43.092;-89.268;2024-01-07T09:24:37;5.35;;;3.47;;
78368;SDS011;71113;43.092;-89.268;2024-01-07T09:27:02;5.25;;;3.65;;
78368;SDS011;71113;43.092;-89.268;2024-01-07T09:29:29;5.53;;;3.45;;
78368;SDS011;71113;43.092;-89.268;2024-01-07T09:31:54;5.38;;;3.40;;
78368;SDS011;71113;43.092;-89.268;2024-01-07T09:34:20;5.53;;;3.60;;
78368;SDS011;71113;43.092;-89.268;2024-01-07T09:36:46;5.53;;;3.55;;
78368;SDS011;71113;43.092;-89.268;2024-01-07T09:39:12;5.70;;;3.53;;
78368;SDS011;71113;43.092;-89.268;2024-01-07T09:41:38;5.97;;;3.58;;
78368;SDS011;71113;43.092;-89.268;2024-01-07T09:44:04;6.82;;;3.67;;
78368;SDS011;71113;43.092;-89.268;2024-01-07T09:46:33;5.80;;;3.40;;
78368;SDS011;71113;43.092;-89.268;2024-01-07T09:49:02;5.38;;;3.55;;
78368;SDS011;71113;43.092;-89.268;2024-01-07T09:51:28;5.10;;;3.22;;
78368;SDS011;71113;43.092;-89.268;2024-01-07T09:53:57;4.78;;;3.10;;
78368;SDS011;71113;43.092;-89.268;2024-01-07T09:56:27;6.40;;;3.60;;
78368;SDS011;71113;43.092;-89.268;2024-01-07T09:59:05;5.88;;;3.45;;
78368;SDS011;71113;43.092;-89.268;2024-01-07T10:01:32;4.80;;;3.53;;
78368;SDS011;71113;43.092;-89.268;2024-01-07T10:04:00;5.68;;;4.00;;
78368;SDS011;71113;43.092;-89.268;2024-01-07T10:06:27;5.38;;;3.33;;
78368;SDS011;71113;43.092;-89.268;2024-01-07T10:08:52;5.57;;;3.70;;
78368;SDS011;71113;43.092;-89.268;2024-01-07T10:11:18;5.50;;;3.70;;
78368;SDS011;71113;43.092;-89.268;2024-01-07T10:13:46;4.97;;;3.15;;
78368;SDS011;71113;43.092;-89.268;2024-01-07T10:16:17;5.05;;;3.08;;
78368;SDS011;71113;43.092;-89.268;2024-01-07T10:18:43;5.07;;;3.47;;
78368;SDS011;71113;43.092;-89.268;2024-01-07T10:21:09;5.15;;;3.22;;
78368;SDS011;71113;43.092;-89.268;2024-01-07T10:23:35;5.03;;;2.95;;
78368;SDS011;71113;43.092;-89.268;2024-01-07T10:26:00;5.30;;;3.20;;
78368;SDS011;71113;43.092;-89.268;2024-01-07T10:28:28;5.43;;;3.10;;
78368;SDS011;71113;43.092;-89.268;2024-01-07T10:30:53;5.00;;;3.35;;
78368;SDS011;71113;43.092;-89.268;2024-01-07T10:33:19;5.43;;;3.47;;
78368;SDS011;71113;43.092;-89.268;2024-01-07T10:35:48;5.70;;;3.33;;
78368;SDS011;71113;43.092;-89.268;2024-01-07T10:38:20;5.22;;;3.40;;
78368;SDS011;71113;43.092;-89.268;2024-01-07T10:40:49;5.07;;;3.15;;
78368;SDS011;71113;43.092;-89.268;2024-01-07T10:43:17;5.55;;;3.20;;
78368;SDS011;71113;43.092;-89.268;2024-01-07T10:45:45;5.65;;;3.33;;
78368;SDS011;71113;43.092;-89.268;2024-01-07T10:48:18;5.07;;;3.22;;
78368;SDS011;71113;43.092;-89.268;2024-01-07T10:50:45;4.80;;;3.13;;
78368;SDS011;71113;43.092;-89.268;2024-01-07T10:53:17;5.22;;;3.30;;
78368;SDS011;71113;43.092;-89.268;2024-01-07T10:55:48;4.57;;;3.00;;
78368;SDS011;71113;43.092;-89.268;2024-01-07T10:58:36;4.13;;;2.55;;
78368;SDS011;71113;43.092;-89.268;2024-01-07T11:01:03;6.40;;;3.10;;
78368;SDS011;71113;43.092;-89.268;2024-01-07T11:03:38;4.63;;;2.70;;
78368;SDS011;71113;43.092;-89.268;2024-01-07T11:06:11;3.70;;;2.60;;
78368;SDS011;71113;43.092;-89.268;2024-01-07T11:08:48;3.42;;;2.40;;
78368;SDS011;71113;43.092;-89.268;2024-01-07T11:11:36;3.95;;;2.30;;
78368;SDS011;71113;43.092;-89.268;2024-01-07T11:14:52;3.85;;;2.20;;
78368;SDS011;71113;43.092;-89.268;2024-01-07T11:17:10;3.80;;;2.30;;
78368;SDS011;71113;43.092;-89.268;2024-01-07T11:19:38;3.47;;;2.17;;
78368;SDS011;71113;43.092;-89.268;2024-01-07T11:22:22;3.20;;;2.05;;
78368;SDS011;71113;43.092;-89.268;2024-01-07T11:24:50;3.75;;;2.03;;
78368;SDS011;71113;43.092;-89.268;2024-01-07T11:27:17;3.17;;;2.00;;
78368;SDS011;71113;43.092;-89.268;2024-01-07T11:29:43;4.55;;;2.17;;
78368;SDS011;71113;43.092;-89.268;2024-01-07T11:32:12;3.22;;;2.20;;
78368;SDS011;71113;43.092;-89.268;2024-01-07T11:37:11;3.15;;;1.83;;
78368;SDS011;71113;43.092;-89.268;2024-01-07T11:39:38;3.40;;;2.03;;
78368;SDS011;71113;43.092;-89.268;2024-01-07T11:42:07;2.80;;;1.77;;
78368;SDS011;71113;43.092;-89.268;2024-01-07T11:44:34;2.70;;;1.83;;
78368;SDS011;71113;43.092;-89.268;2024-01-07T11:47:02;3.10;;;1.85;;
78368;SDS011;71113;43.092;-89.268;2024-01-07T11:49:29;2.92;;;1.80;;
78368;SDS011;71113;43.092;-89.268;2024-01-07T11:51:56;2.55;;;1.60;;
78368;SDS011;71113;43.092;-89.268;2024-01-07T11:54:22;3.20;;;1.90;;
78368;SDS011;71113;43.092;-89.268;2024-01-07T11:56:48;2.25;;;1.55;;
78368;SDS011;71113;43.092;-89.268;2024-01-07T11:59:13;3.25;;;1.98;;
78368;SDS011;71113;43.092;-89.268;2024-01-07T12:01:39;2.47;;;1.63;;
78368;SDS011;71113;43.092;-89.268;2024-01-07T12:04:05;3.00;;;1.80;;
78368;SDS011;71113;43.092;-89.268;2024-01-07T12:06:33;2.58;;;1.55;;
78368;SDS011;71113;43.092;-89.268;2024-01-07T12:08:59;2.60;;;1.60;;
78368;SDS011;71113;43.092;-89.268;2024-01-07T12:11:25;2.92;;;1.80;;
78368;SDS011;71113;43.092;-89.268;2024-01-07T12:13:51;2.42;;;1.60;;
78368;SDS011;71113;43.092;-89.268;2024-01-07T12:16:17;2.80;;;1.98;;
78368;SDS011;71113;43.092;-89.268;2024-01-07T12:18:43;2.63;;;1.55;;
78368;SDS011;71113;43.092;-89.268;2024-01-07T12:21:09;3.08;;;1.90;;
78368;SDS011;71113;43.092;-89.268;2024-01-07T12:23:35;2.78;;;1.67;;
78368;SDS011;71113;43.092;-89.268;2024-01-07T12:26:11;3.08;;;2.08;;
78368;SDS011;71113;43.092;-89.268;2024-01-07T12:28:37;2.90;;;1.80;;
78368;SDS011;71113;43.092;-89.268;2024-01-07T12:31:04;3.40;;;2.00;;
78368;SDS011;71113;43.092;-89.268;2024-01-07T12:33:30;3.05;;;2.03;;
78368;SDS011;71113;43.092;-89.268;2024-01-07T12:36:00;2.72;;;1.80;;
78368;SDS011;71113;43.092;-89.268;2024-01-07T12:38:27;2.90;;;1.83;;
78368;SDS011;71113;43.092;-89.268;2024-01-07T12:40:53;3.20;;;1.90;;
78368;SDS011;71113;43.092;-89.268;2024-01-07T12:43:19;3.38;;;2.03;;
78368;SDS011;71113;43.092;-89.268;2024-01-07T12:45:45;3.92;;;2.08;;
78368;SDS011;71113;43.092;-89.268;2024-01-07T12:48:13;2.78;;;1.80;;
78368;SDS011;71113;43.092;-89.268;2024-01-07T12:50:39;2.63;;;1.80;;
78368;SDS011;71113;43.092;-89.268;2024-01-07T12:53:04;3.20;;;1.98;;
78368;SDS011;71113;43.092;-89.268;2024-01-07T12:55:30;2.90;;;1.90;;
78368;SDS011;71113;43.092;-89.268;2024-01-07T12:57:57;3.22;;;1.92;;
78368;SDS011;71113;43.092;-89.268;2024-01-07T13:00:24;2.78;;;1.80;;
78368;SDS011;71113;43.092;-89.268;2024-01-07T13:02:51;2.80;;;1.73;;
78368;SDS011;71113;43.092;-89.268;2024-01-07T13:05:17;3.30;;;1.90;;
78368;SDS011;71113;43.092;-89.268;2024-01-07T13:07:44;3.03;;;1.90;;
78368;SDS011;71113;43.092;-89.268;2024-01-07T13:10:10;3.25;;;2.08;;
78368;SDS011;71113;43.092;-89.268;2024-01-07T13:12:36;2.67;;;1.73;;
78368;SDS011;71113;43.092;-89.268;2024-01-07T13:15:02;2.60;;;1.67;;
78368;SDS011;71113;43.092;-89.268;2024-01-07T13:17:29;3.13;;;1.90;;
78368;SDS011;71113;43.092;-89.268;2024-01-07T13:20:04;4.07;;;2.13;;
78368;SDS011;71113;43.092;-89.268;2024-01-07T13:22:39;3.00;;;1.90;;
78368;SDS011;71113;43.092;-89.268;2024-01-07T13:25:06;3.33;;;1.90;;
78368;SDS011;71113;43.092;-89.268;2024-01-07T13:27:32;3.10;;;1.83;;
78368;SDS011;71113;43.092;-89.268;2024-01-07T13:29:58;3.05;;;1.83;;
78368;SDS011;71113;43.092;-89.268;2024-01-07T13:32:24;2.85;;;1.70;;
78368;SDS011;71113;43.092;-89.268;2024-01-07T13:34:51;2.58;;;1.70;;
78368;SDS011;71113;43.092;-89.268;2024-01-07T13:37:16;3.40;;;2.10;;
78368;SDS011;71113;43.092;-89.268;2024-01-07T13:39:42;3.60;;;2.15;;
78368;SDS011;71113;43.092;-89.268;2024-01-07T13:42:08;3.28;;;1.75;;
78368;SDS011;71113;43.092;-89.268;2024-01-07T13:44:34;2.83;;;1.75;;
78368;SDS011;71113;43.092;-89.268;2024-01-07T13:47:00;3.42;;;2.05;;
78368;SDS011;71113;43.092;-89.268;2024-01-07T13:49:30;2.38;;;1.58;;
78368;SDS011;71113;43.092;-89.268;2024-01-07T13:51:56;3.10;;;1.90;;
78368;SDS011;71113;43.092;-89.268;2024-01-07T13:54:22;3.20;;;2.15;;
78368;SDS011;71113;43.092;-89.268;2024-01-07T13:56:48;2.78;;;1.70;;
78368;SDS011;71113;43.092;-89.268;2024-01-07T13:59:15;3.20;;;2.00;;
78368;SDS011;71113;43.092;-89.268;2024-01-07T14:01:42;2.88;;;1.80;;
78368;SDS011;71113;43.092;-89.268;2024-01-07T14:04:08;3.10;;;2.00;;
78368;SDS011;71113;43.092;-89.268;2024-01-07T14:06:34;3.30;;;2.00;;
78368;SDS011;71113;43.092;-89.268;2024-01-07T14:09:00;2.90;;;1.88;;
78368;SDS011;71113;43.092;-89.268;2024-01-07T14:11:27;3.08;;;1.92;;
78368;SDS011;71113;43.092;-89.268;2024-01-07T14:13:53;2.65;;;1.65;;
78368;SDS011;71113;43.092;-89.268;2024-01-07T14:16:19;2.63;;;1.83;;
78368;SDS011;71113;43.092;-89.268;2024-01-07T14:18:45;2.70;;;1.73;;